Terminal Aerodrome Forecast
Issued by NWS Jackson, MS

Home | Current Version | Previous Version | Text Only | Print | Product List | Glossary On
Versions: 1 2 3 4 5 6 7 8 9 10 11 12 13 14
000
FTUS44 KJAN 011700
TAFGLH
TAF
KGLH 011737Z 0118/0218 03007KT 5SM BR OVC004
     FM012000 02007KT 3SM -SHRA OVC004
     FM020600 02014KT 3SM -SHRA OVC006=

USA.gov is the U.S. government's official web portal to all federal, state and local government web resources and services.